createdAt,value
2019-02-17T00:00:45.596Z,98079.81
2019-02-17T00:03:17.261Z,98073.37
2019-02-17T00:05:48.377Z,98069.44
2019-02-17T00:08:20.267Z,98070.14
2019-02-17T00:10:51.280Z,98077.30
2019-02-17T00:13:22.374Z,98072.55
2019-02-17T00:15:52.755Z,98073.14
2019-02-17T00:18:23.991Z,98069.41
2019-02-17T00:20:54.730Z,98071.88
2019-02-17T00:23:25.793Z,98069.82
2019-02-17T00:25:58.127Z,98079.91
2019-02-17T00:28:29.236Z,98077.52
2019-02-17T00:31:01.020Z,98085.52
2019-02-17T00:33:31.566Z,98077.38
2019-02-17T00:36:02.709Z,98084.16
2019-02-17T00:38:34.522Z,98084.57
2019-02-17T00:41:22.797Z,98088.95
2019-02-17T00:43:57.182Z,98087.91
2019-02-17T00:46:29.115Z,98089.69
2019-02-17T00:49:00.086Z,98091.07
2019-02-17T00:51:31.543Z,98091.33
2019-02-17T00:54:02.969Z,98087.57
2019-02-17T00:56:34.217Z,98093.17
2019-02-17T00:59:10.078Z,98090.16
2019-02-17T01:01:38.304Z,98092.95
2019-02-17T01:04:08.959Z,98091.55
2019-02-17T01:06:40.661Z,98085.95
2019-02-17T01:09:11.366Z,98090.21
2019-02-17T01:11:42.005Z,98089.67
2019-02-17T01:14:13.848Z,98090.44
2019-02-17T01:16:59.134Z,98089.28
2019-02-17T01:19:30.734Z,98085.63
2019-02-17T01:22:11.571Z,98082.52
2019-02-17T01:24:42.623Z,98082.45
2019-02-17T01:27:14.099Z,98085.95
2019-02-17T01:29:45.225Z,98085.16
2019-02-17T01:32:17.067Z,98093.41
2019-02-17T01:34:48.712Z,98090.31
2019-02-17T01:37:20.124Z,98088.33
2019-02-17T01:39:57.339Z,98086.70
2019-02-17T01:42:28.669Z,98089.42
2019-02-17T01:44:59.933Z,98074.66
2019-02-17T01:47:31.831Z,98083.72
2019-02-17T01:50:02.812Z,98081.07
2019-02-17T01:52:33.532Z,98082.83
2019-02-17T01:55:04.208Z,98081.53
2019-02-17T01:57:35.393Z,98081.81
2019-02-17T02:00:08.246Z,98082.67
2019-02-17T03:01:53.646Z,98056.40
2019-02-17T03:04:24.917Z,98059.73
2019-02-17T03:06:58.263Z,98059.98
2019-02-17T03:09:29.690Z,98059.16
2019-02-17T03:12:01.472Z,98057.81
2019-02-17T03:14:32.922Z,98054.09
2019-02-17T03:17:10.700Z,98054.50
2019-02-17T03:19:42.577Z,98050.08
2019-02-17T03:22:27.000Z,98050.47
2019-02-17T03:24:58.358Z,98053.00
2019-02-17T03:27:30.463Z,98048.43
2019-02-17T03:30:05.078Z,98059.80
2019-02-17T03:32:36.596Z,98051.09
2019-02-17T03:35:11.574Z,98054.96
2019-02-17T03:37:43.666Z,98059.60
2019-02-17T03:40:14.758Z,98056.05
2019-02-17T03:43:16.330Z,98054.55
2019-02-17T03:45:48.138Z,98049.20
2019-02-17T03:48:19.983Z,98047.28
2019-02-17T03:50:51.619Z,98049.97
2019-02-17T03:53:23.357Z,98048.94
2019-02-17T03:56:04.699Z,98047.76
2019-02-17T03:58:39.734Z,98043.34
2019-02-17T04:01:11.514Z,98048.78
2019-02-17T04:03:43.019Z,98049.58
2019-02-17T04:06:17.325Z,98057.09
2019-02-17T04:08:49.200Z,98053.17
2019-02-17T04:11:22.795Z,98053.30
2019-02-17T04:14:06.631Z,98053.51
2019-02-17T04:16:43.893Z,98053.95
2019-02-17T04:19:21.379Z,98058.20
2019-02-17T04:21:53.393Z,98052.57
2019-02-17T04:24:25.220Z,98052.81
2019-02-17T04:26:57.669Z,98058.25
2019-02-17T04:29:34.897Z,98056.50
2019-02-17T04:32:06.418Z,98058.48
2019-02-17T04:34:38.066Z,98054.48
2019-02-17T04:37:09.376Z,98056.80
2019-02-17T04:39:40.881Z,98054.98
2019-02-17T04:42:26.083Z,98053.86
2019-02-17T04:45:12.234Z,98054.98
2019-02-17T04:47:47.673Z,98054.02
2019-02-17T04:50:25.486Z,98056.92
2019-02-17T04:52:57.228Z,98058.70
2019-02-17T04:55:28.613Z,98058.02
2019-02-17T04:57:59.514Z,98060.81
2019-02-17T05:00:39.865Z,98060.53
2019-02-17T05:03:03.236Z,98061.20
2019-02-17T05:05:34.668Z,98056.25
2019-02-17T05:08:06.053Z,98056.66
2019-02-17T05:10:38.031Z,98055.23
2019-02-17T05:13:09.312Z,98053.46
2019-02-17T05:15:50.624Z,98049.91
2019-02-17T05:18:22.339Z,98046.39
2019-02-17T05:20:54.014Z,98049.66
2019-02-17T05:23:25.789Z,98051.18
2019-02-17T05:25:57.452Z,98039.91
2019-02-17T05:28:28.475Z,98045.34
2019-02-17T05:30:59.847Z,98044.75
2019-02-17T05:33:31.165Z,98048.62
2019-02-17T05:36:02.791Z,98047.54
2019-02-17T05:38:33.894Z,98045.45
2019-02-17T05:41:05.221Z,98047.84
2019-02-17T05:43:36.321Z,98055.23
2019-02-17T05:46:08.023Z,98054.02
2019-02-17T05:48:39.127Z,98052.88
2019-02-17T05:51:10.781Z,98048.63
2019-02-17T05:53:42.166Z,98056.78
2019-02-17T05:56:14.276Z,98060.07
2019-02-17T05:58:45.647Z,98057.70
2019-02-17T06:01:16.845Z,98060.00
2019-02-17T06:03:47.863Z,98062.75
2019-02-17T06:06:19.621Z,98062.97
2019-02-17T06:08:50.962Z,98061.55
2019-02-17T06:11:22.012Z,98059.17
2019-02-17T06:13:53.362Z,98058.64
2019-02-17T06:16:25.324Z,98063.42
2019-02-17T06:18:56.690Z,98065.05
2019-02-17T06:21:27.698Z,98061.20
2019-02-17T06:23:58.866Z,98063.20
2019-02-17T06:26:30.287Z,98061.26
2019-02-17T06:29:01.653Z,98065.37
2019-02-17T06:31:33.286Z,98068.60
2019-02-17T06:34:04.953Z,98077.02
2019-02-17T06:36:52.189Z,98075.24
2019-02-17T06:39:23.922Z,98079.80
2019-02-17T06:41:55.107Z,98075.33
2019-02-17T06:44:26.561Z,98079.08
2019-02-17T06:47:03.316Z,98080.37
2019-02-17T06:49:35.389Z,98077.20
2019-02-17T06:52:06.780Z,98079.27
2019-02-17T06:54:37.953Z,98071.75
2019-02-17T06:57:27.960Z,98079.62
2019-02-17T07:00:12.997Z,98077.17
2019-02-17T07:02:44.785Z,98082.16
2019-02-17T07:05:22.467Z,98076.91
2019-02-17T07:07:54.179Z,98079.77
2019-02-17T07:10:25.488Z,98075.60
2019-02-17T07:12:56.512Z,98077.09
2019-02-17T07:15:28.590Z,98070.23
2019-02-17T07:17:59.359Z,98076.84
2019-02-17T07:20:30.793Z,98077.75
2019-02-17T07:23:02.552Z,98078.98
2019-02-17T07:25:33.876Z,98080.27
2019-02-17T07:28:05.327Z,98081.95
2019-02-17T07:30:37.007Z,98072.72
2019-02-17T07:33:08.034Z,98070.75
2019-02-17T07:35:40.043Z,98071.64
2019-02-17T07:38:11.451Z,98078.21
2019-02-17T07:40:43.607Z,98072.27
2019-02-17T07:43:14.652Z,98068.68
2019-02-17T07:45:46.389Z,98074.84
2019-02-17T07:48:17.425Z,98072.17
2019-02-17T07:50:49.144Z,98075.92
2019-02-17T07:53:21.154Z,98075.84
2019-02-17T07:55:53.020Z,98077.41
2019-02-17T07:58:24.417Z,98078.38
2019-02-17T08:00:55.912Z,98079.84
2019-02-17T08:03:26.638Z,98078.11
2019-02-17T08:05:58.194Z,98081.30
2019-02-17T08:08:29.949Z,98077.48
2019-02-17T08:11:04.020Z,98073.16
2019-02-17T08:13:34.820Z,98076.03
2019-02-17T08:16:05.951Z,98075.10
2019-02-17T08:18:37.707Z,98063.69
2019-02-17T08:21:08.806Z,98072.05
2019-02-17T08:23:40.057Z,98063.69
2019-02-17T08:26:11.386Z,98063.16
2019-02-17T08:29:21.814Z,98058.83
2019-02-17T08:31:55.803Z,98061.64
2019-02-17T08:34:25.923Z,98057.46
2019-02-17T08:36:57.275Z,98058.48
2019-02-17T08:39:28.856Z,98055.93
2019-02-17T08:42:00.673Z,98051.38
2019-02-17T08:44:32.204Z,98050.55
2019-02-17T08:47:03.164Z,98054.93
2019-02-17T08:49:34.245Z,98055.95
2019-02-17T08:52:05.356Z,98051.97
2019-02-17T08:54:36.705Z,98044.95
2019-02-17T08:57:08.804Z,98040.45
2019-02-17T08:59:40.350Z,98037.71
2019-02-17T09:02:11.991Z,98032.24
2019-02-17T09:04:43.139Z,98034.87
2019-02-17T09:07:14.257Z,98028.17
2019-02-17T09:09:46.076Z,98029.39
2019-02-17T09:12:18.081Z,98031.84
2019-02-17T09:14:49.038Z,98026.96
2019-02-17T09:17:19.746Z,98019.66
2019-02-17T09:19:51.656Z,98013.95
2019-02-17T09:22:22.980Z,98017.50
2019-02-17T09:24:54.471Z,98016.79
2019-02-17T09:27:26.509Z,98019.23
2019-02-17T09:29:57.915Z,98016.80
2019-02-17T09:32:52.267Z,98021.66
2019-02-17T09:35:23.575Z,98013.52
2019-02-17T09:37:54.939Z,98010.61
2019-02-17T09:40:34.492Z,98008.91
2019-02-17T09:43:06.193Z,98001.27
2019-02-17T09:45:37.757Z,98006.19
2019-02-17T09:48:09.027Z,98006.27
2019-02-17T09:50:42.321Z,98009.84
2019-02-17T09:53:13.759Z,98001.32
2019-02-17T09:55:44.706Z,98005.69
2019-02-17T09:58:16.487Z,97994.90
2019-02-17T10:00:48.008Z,97999.09
2019-02-17T10:03:19.299Z,97999.36
2019-02-17T10:05:50.951Z,97993.38
2019-02-17T10:08:22.715Z,97992.81
2019-02-17T10:10:53.978Z,97989.58
2019-02-17T10:13:25.278Z,97986.91
2019-02-17T10:15:56.001Z,97986.77
2019-02-17T10:18:27.661Z,97989.36
2019-02-17T10:20:59.011Z,97995.42
2019-02-17T10:23:30.110Z,97991.02
2019-02-17T10:26:04.849Z,97991.03
2019-02-17T10:28:42.390Z,97992.09
2019-02-17T10:31:09.049Z,97998.83
2019-02-17T10:33:41.156Z,97987.58
2019-02-17T10:36:31.430Z,97983.48
2019-02-17T10:39:02.086Z,97983.33
2019-02-17T10:41:33.868Z,97985.72
2019-02-17T10:44:06.134Z,97982.38
2019-02-17T10:46:39.352Z,97983.05
2019-02-17T10:49:10.688Z,97982.08
2019-02-17T10:51:41.819Z,97973.58
2019-02-17T10:54:13.268Z,97970.59
2019-02-17T10:56:45.027Z,97967.19
2019-02-17T10:59:16.194Z,97964.30
2019-02-17T11:01:49.113Z,97948.08
2019-02-17T11:04:21.007Z,97945.86
2019-02-17T11:06:55.430Z,97942.34
2019-02-17T11:09:28.648Z,97938.94
2019-02-17T11:12:15.075Z,97934.80
2019-02-17T11:14:51.809Z,97920.39
2019-02-17T11:17:27.415Z,97924.69
2019-02-17T11:20:18.084Z,97919.95
2019-02-17T11:22:49.819Z,97912.87
2019-02-17T11:25:21.960Z,97912.14
2019-02-17T11:27:53.324Z,97911.89
2019-02-17T11:30:37.392Z,97910.48
2019-02-17T11:33:08.931Z,97911.02
2019-02-17T11:35:40.701Z,97904.33
2019-02-17T11:38:13.253Z,97899.66
2019-02-17T11:40:45.336Z,97899.29
2019-02-17T11:43:17.299Z,97890.46
2019-02-17T11:48:33.066Z,97882.21
2019-02-17T11:51:04.933Z,97878.98
2019-02-17T11:53:37.706Z,97871.21
2019-02-17T11:56:10.286Z,97874.47
2019-02-17T11:58:54.266Z,97872.78
2019-02-17T12:01:24.664Z,97870.38
2019-02-17T12:03:59.566Z,97871.40
2019-02-17T12:06:38.634Z,97863.55
2019-02-17T12:09:12.377Z,97860.89
2019-02-17T12:11:45.823Z,97858.32
2019-02-17T12:14:23.105Z,97854.97
2019-02-17T12:16:57.101Z,97856.86
2019-02-17T12:19:28.075Z,97853.86
2019-02-17T12:22:18.163Z,97851.87
2019-02-17T12:24:54.634Z,97847.25
2019-02-17T12:27:30.857Z,97840.91
2019-02-17T12:30:08.199Z,97835.61
2019-02-17T12:32:39.772Z,97833.67
2019-02-17T12:35:10.969Z,97821.86
2019-02-17T12:37:42.757Z,97816.41
2019-02-17T12:40:26.868Z,97819.89
2019-02-17T12:43:02.723Z,97821.42
2019-02-17T12:45:54.685Z,97819.23
2019-02-17T12:48:25.879Z,97819.52
2019-02-17T12:51:01.733Z,97820.25
2019-02-17T12:53:43.520Z,97814.33
2019-02-17T12:56:16.254Z,97805.37
2019-02-17T12:59:00.457Z,97807.66
2019-02-17T13:01:45.304Z,97804.41
2019-02-17T13:04:16.660Z,97790.28
2019-02-17T13:06:48.146Z,97786.31
2019-02-17T13:09:19.544Z,97786.27
2019-02-17T13:11:51.438Z,97787.16
2019-02-17T13:14:22.614Z,97781.00
2019-02-17T13:16:54.662Z,97773.51
2019-02-17T13:19:26.889Z,97773.88
2019-02-17T13:22:03.820Z,97770.80
2019-02-17T13:24:35.419Z,97765.13
2019-02-17T13:27:07.834Z,97765.89
2019-02-17T13:29:42.581Z,97762.72
2019-02-17T13:32:13.812Z,97751.17
2019-02-17T13:34:51.731Z,97744.00
2019-02-17T13:37:24.073Z,97742.73
2019-02-17T13:40:02.340Z,97736.64
2019-02-17T13:42:37.490Z,97736.20
2019-02-17T13:45:11.575Z,97735.14
2019-02-17T13:47:42.316Z,97734.28
2019-02-17T13:50:15.677Z,97730.88
2019-02-17T13:52:47.468Z,97721.48
2019-02-17T13:55:21.832Z,97723.48
2019-02-17T13:57:53.917Z,97720.55
2019-02-17T14:00:37.560Z,97715.64
2019-02-17T14:03:20.139Z,97708.34
2019-02-17T14:05:52.419Z,97705.66
2019-02-17T14:08:23.445Z,97707.54
2019-02-17T14:10:56.086Z,97703.67
2019-02-17T14:13:28.225Z,97699.55
2019-02-17T14:16:00.178Z,97696.09
2019-02-17T14:18:32.559Z,97694.36
2019-02-17T14:21:03.953Z,97689.39
2019-02-17T14:23:35.840Z,97692.77
2019-02-17T14:26:06.867Z,97691.27
2019-02-17T14:28:38.271Z,97690.72
2019-02-17T14:31:10.420Z,97684.70
2019-02-17T14:33:41.541Z,97685.19
2019-02-17T14:36:12.819Z,97681.20
2019-02-17T14:38:44.307Z,97688.15
2019-02-17T14:41:15.070Z,97677.11
2019-02-17T14:43:57.405Z,97672.74
2019-02-17T14:46:35.049Z,97673.10
2019-02-17T14:49:12.374Z,97674.67
2019-02-17T14:51:49.777Z,97677.38
2019-02-17T14:54:21.455Z,97669.85
2019-02-17T14:56:52.731Z,97667.27
2019-02-17T14:59:24.821Z,97665.79
2019-02-17T15:01:55.912Z,97667.98
2019-02-17T15:04:52.135Z,97659.98
2019-02-17T15:07:22.823Z,97659.34
2019-02-17T15:09:54.303Z,97657.20
2019-02-17T15:12:25.408Z,97653.44
2019-02-17T15:14:56.510Z,97655.86
2019-02-17T15:17:28.450Z,97645.03
2019-02-17T15:20:00.335Z,97645.48
2019-02-17T15:22:31.777Z,97637.80
2019-02-17T15:25:03.500Z,97641.05
2019-02-17T15:27:35.197Z,97636.72
2019-02-17T15:30:07.074Z,97636.78
2019-02-17T15:32:39.195Z,97639.05
2019-02-17T15:35:10.991Z,97633.59
2019-02-17T15:37:42.445Z,97632.91
2019-02-17T15:40:13.494Z,97630.95
2019-02-17T15:43:14.963Z,97634.19
2019-02-17T15:45:48.009Z,97634.95
2019-02-17T15:48:21.006Z,97630.30
2019-02-17T15:50:52.136Z,97627.02
2019-02-17T15:53:23.790Z,97622.20
2019-02-17T15:55:55.988Z,97634.06
2019-02-17T15:59:03.269Z,97626.75
2019-02-17T16:02:07.150Z,97615.66
2019-02-17T16:04:38.907Z,97615.40
2019-02-17T16:07:10.241Z,97609.80
2019-02-17T16:09:41.729Z,97612.95
2019-02-17T16:12:13.173Z,97611.62
2019-02-17T16:14:54.044Z,97611.36
2019-02-17T16:17:25.190Z,97611.98
2019-02-17T16:19:57.379Z,97613.09
2019-02-17T16:22:41.905Z,97610.91
2019-02-17T16:25:13.041Z,97611.50
2019-02-17T16:27:48.041Z,97612.55
2019-02-17T16:30:20.670Z,97613.45
2019-02-17T16:32:52.023Z,97614.41
2019-02-17T16:35:23.081Z,97618.72
2019-02-17T16:37:54.510Z,97620.37
2019-02-17T16:40:53.343Z,97622.34
2019-02-17T16:43:24.539Z,97625.31
2019-02-17T16:45:56.643Z,97630.20
2019-02-17T16:48:27.976Z,97631.11
2019-02-17T16:51:00.962Z,97634.73
2019-02-17T16:53:40.873Z,97638.45
2019-02-17T16:56:12.044Z,97636.27
2019-02-17T16:58:42.823Z,97640.22
2019-02-17T17:01:14.024Z,97637.34
2019-02-17T17:03:45.951Z,97633.50
2019-02-17T17:06:17.592Z,97635.92
2019-02-17T17:08:49.500Z,97636.45
2019-02-17T17:11:29.669Z,97640.84
2019-02-17T17:14:01.275Z,97640.36
2019-02-17T17:16:33.038Z,97646.42
2019-02-17T17:19:03.950Z,97647.86
2019-02-17T17:21:35.897Z,97649.85
2019-02-17T17:24:07.592Z,97651.04
2019-02-17T17:26:38.672Z,97650.36
2019-02-17T17:29:09.777Z,97655.92
2019-02-17T17:31:41.084Z,97659.01
2019-02-17T17:34:12.081Z,97656.02
2019-02-17T17:36:43.395Z,97658.84
2019-02-17T17:39:15.003Z,97661.87
2019-02-17T17:41:48.152Z,97655.57
2019-02-17T17:44:19.522Z,97663.42
2019-02-17T17:46:51.524Z,97659.66
2019-02-17T17:49:23.548Z,97662.81
2019-02-17T17:51:54.873Z,97666.55
2019-02-17T17:54:32.252Z,97669.84
2019-02-17T17:57:03.332Z,97672.58
2019-02-17T17:59:34.678Z,97678.16
2019-02-17T18:02:05.596Z,97680.58
2019-02-17T18:04:37.449Z,97683.72
2019-02-17T18:07:08.701Z,97682.00
2019-02-17T18:09:49.924Z,97683.91
2019-02-17T18:12:21.612Z,97686.93
2019-02-17T18:14:53.315Z,97693.64
2019-02-17T18:17:25.398Z,97692.02
2019-02-17T18:19:57.336Z,97695.22
2019-02-17T18:22:47.835Z,97696.98
2019-02-17T18:25:19.169Z,97695.05
2019-02-17T18:27:51.069Z,97691.27
2019-02-17T18:30:25.501Z,97693.63
2019-02-17T18:32:56.759Z,97690.20
2019-02-17T18:35:29.699Z,97691.17
2019-02-17T18:38:01.458Z,97688.25
2019-02-17T18:40:44.473Z,97685.83
2019-02-17T18:43:08.502Z,97687.12
2019-02-17T18:45:40.204Z,97693.73
2019-02-17T18:48:12.974Z,97687.90
2019-02-17T18:50:43.931Z,97692.70
2019-02-17T18:53:19.982Z,97690.13
2019-02-17T18:55:52.178Z,97691.23
2019-02-17T18:58:23.382Z,97689.23
2019-02-17T19:00:55.784Z,97697.98
2019-02-17T19:03:27.239Z,97698.42
2019-02-17T19:05:58.807Z,97694.95
2019-02-17T19:08:30.263Z,97693.70
2019-02-17T19:11:01.722Z,97692.86
2019-02-17T19:13:55.984Z,97692.64
2019-02-17T19:16:27.769Z,97699.44
2019-02-17T19:18:59.562Z,97696.03
2019-02-17T19:21:30.976Z,97696.62
2019-02-17T19:24:02.879Z,97694.90
2019-02-17T19:26:34.917Z,97698.46
2019-02-17T19:29:10.305Z,97701.42
2019-02-17T19:31:41.345Z,97694.02
2019-02-17T19:34:20.838Z,97693.16
2019-02-17T19:36:57.844Z,97694.88
2019-02-17T19:39:33.853Z,97698.56
2019-02-17T19:42:05.136Z,97696.92
2019-02-17T19:44:36.547Z,97696.69
2019-02-17T19:47:14.111Z,97702.43
2019-02-17T19:49:48.073Z,97698.02
2019-02-17T19:52:19.750Z,97695.05
2019-02-17T19:54:51.694Z,97696.05
2019-02-17T19:57:23.807Z,97696.73
2019-02-17T19:59:55.670Z,97688.47
2019-02-17T20:03:02.299Z,97688.62
2019-02-17T20:05:38.075Z,97696.86
2019-02-17T20:08:14.230Z,97686.48
2019-02-17T20:10:46.207Z,97689.47
2019-02-17T20:13:18.773Z,97699.17
2019-02-17T20:15:52.444Z,97691.57
2019-02-17T20:18:31.924Z,97696.28
2019-02-17T20:21:05.934Z,97701.38
2019-02-17T20:23:42.533Z,97704.73
2019-02-17T20:26:18.146Z,97711.03
2019-02-17T20:29:01.603Z,97713.11
2019-02-17T20:31:53.836Z,97713.31
2019-02-17T20:34:33.766Z,97709.45
2019-02-17T20:37:44.308Z,97712.23
2019-02-17T20:40:16.445Z,97708.23
2019-02-17T20:43:11.349Z,97709.16
2019-02-17T20:46:13.199Z,97713.97
2019-02-17T20:49:14.342Z,97713.35
2019-02-17T20:52:30.553Z,97716.59
2019-02-17T20:55:41.567Z,97714.22
2019-02-17T20:59:03.037Z,97715.79
2019-02-17T21:01:37.561Z,97717.09
2019-02-17T21:04:19.932Z,97715.80
2019-02-17T21:06:53.266Z,97722.30
2019-02-17T21:09:31.217Z,97724.23
2019-02-17T21:12:09.992Z,97723.78
2019-02-17T21:14:49.625Z,97721.38
2019-02-17T21:17:30.446Z,97720.88
2019-02-17T21:20:10.796Z,97726.51
2019-02-17T21:22:47.193Z,97725.75
2019-02-17T21:25:20.881Z,97729.60
2019-02-17T21:28:02.250Z,97724.51
2019-02-17T21:30:44.118Z,97717.97
2019-02-17T21:33:36.281Z,97721.19
2019-02-17T21:36:23.393Z,97719.56
2019-02-17T21:38:59.518Z,97718.11
2019-02-17T21:41:36.721Z,97718.91
2019-02-17T21:44:12.823Z,97721.78
2019-02-17T21:46:46.139Z,97724.69
2019-02-17T21:49:17.604Z,97722.64
2019-02-17T21:51:51.010Z,97722.33
2019-02-17T21:54:26.358Z,97724.59
2019-02-17T21:57:09.277Z,97720.73
2019-02-17T21:59:50.585Z,97716.42
2019-02-17T22:02:21.422Z,97715.95
2019-02-17T22:04:59.390Z,97717.38
2019-02-17T22:07:37.142Z,97715.61
2019-02-17T22:10:11.335Z,97711.80
2019-02-17T22:12:45.556Z,97714.50
2019-02-17T22:15:50.963Z,97715.95
2019-02-17T22:18:33.641Z,97701.19
2019-02-17T22:21:29.247Z,97707.30
2019-02-17T22:24:04.552Z,97709.10
2019-02-17T22:26:53.305Z,97708.13
2019-02-17T22:29:38.422Z,97703.02
2019-02-17T22:32:19.163Z,97697.90
2019-02-17T22:35:03.141Z,97690.83
2019-02-17T22:37:40.907Z,97696.11
2019-02-17T22:40:26.050Z,97693.86
2019-02-17T22:43:07.199Z,97695.48
2019-02-17T22:45:43.469Z,97692.13
2019-02-17T22:48:38.678Z,97692.92
2019-02-17T22:51:10.991Z,97693.08
2019-02-17T22:53:45.109Z,97692.27
2019-02-17T22:56:18.211Z,97692.44
2019-02-17T22:59:07.588Z,97691.16
2019-02-17T23:01:39.029Z,97688.41
2019-02-17T23:04:33.249Z,97685.38
2019-02-17T23:07:11.047Z,97681.05
2019-02-17T23:09:47.900Z,97688.92
2019-02-17T23:12:34.663Z,97684.44
2019-02-17T23:15:07.510Z,97690.03
2019-02-17T23:17:44.654Z,97686.66
2019-02-17T23:20:19.998Z,97689.09
2019-02-17T23:22:51.902Z,97687.79
2019-02-17T23:25:27.438Z,97689.56
2019-02-17T23:28:01.219Z,97689.09
2019-02-17T23:30:45.588Z,97696.45
2019-02-17T23:33:23.330Z,97694.54
2019-02-17T23:36:06.257Z,97690.37
2019-02-17T23:38:45.098Z,97690.52
2019-02-17T23:41:27.725Z,97687.65
2019-02-17T23:44:04.065Z,97687.45
2019-02-17T23:46:41.607Z,97688.91
2019-02-17T23:49:19.793Z,97684.89
2019-02-17T23:51:53.516Z,97682.64
2019-02-17T23:54:25.629Z,97683.16
2019-02-17T23:57:04.876Z,97679.45
